Track Русакова Александра

Time Latitude Longitude Accuracy (66% radius in meters) Altitude (meters) Speed (km/hour) Bearing (degrees) Battery (%) GPS flag
09:35:10 60.370941 29.556286 12 77 0.47511580586433 210.79699707031 52 1 delete
09:34:57 60.370954 29.556308 12 85 0 170.39308166504 52 1 delete
09:34:42 60.370954 29.556308 12 83 0 170.39308166504 52 1 delete
09:34:30 60.370954 29.556308 12 83 0 170.39308166504 55 1 delete
09:34:17 60.370954 29.556308 8 82 0 170.39308166504 55 1 delete
09:34:05 60.370954 29.556308 8 80 0 170.39308166504 55 1 delete
09:33:52 60.370951 29.556295 4 75 0 170.39308166504 55 1 delete
09:33:39 60.370944 29.556307 16 62 0 213.02239990234 55 1 delete
09:33:26 60.370967 29.556363 8 64 0 225.06825256348 55 1 delete
09:33:13 60.370957 29.556293 12 77 0 225.06825256348 55 1 delete
09:33:01 60.370990 29.556213 6 101 0 225.06825256348 55 1 delete
09:32:58 60.370993 29.556225 8 98 0 225.06825256348 55 1 delete
09:32:48 60.370991 29.556323 6 76 0 225.06825256348 55 1 delete
09:32:35 60.370973 29.556285 8 78 0 225.06825256348 55 1 delete
09:32:23 60.370937 29.556256 6 90 0 160.25773620605 55 1 delete
09:32:10 60.370948 29.556338 6 78 0 177.93209838867 55 1 delete
09:31:57 60.370980 29.556303 6 66 0 177.93209838867 55 1 delete
09:31:44 60.370984 29.556259 4 80 0 177.93209838867 55 1 delete
09:31:32 60.370989 29.556257 6 79 0 177.93209838867 55 1 delete
09:31:19 60.370967 29.556234 6 85 0.28377720713615 177.93209838867 55 1 delete
09:31:10 60.370958 29.556286 6 83 0 161.04307556152 55 1 delete
09:31:07 60.370960 29.556296 8 76 0 161.04307556152 55 1 delete
09:30:55 60.370983 29.556329 6 72 0 161.04307556152 55 1 delete
09:30:48 60.370971 29.556374 4 65 0 161.04307556152 55 1 delete
09:30:42 60.370946 29.556340 6 67 0 161.04307556152 55 1 delete
09:30:40 60.370935 29.556318 8 70 0 161.04307556152 55 1 delete
09:30:29 60.370896 29.556197 6 76 0 161.04307556152 55 1 delete
09:30:17 60.370920 29.556244 8 75 0 161.04307556152 55 1 delete
09:30:05 60.370911 29.556228 6 76 0 161.04307556152 55 1 delete
09:29:54 60.370914 29.556223 6 65 0 161.04307556152 55 1 delete
09:29:52 60.370920 29.556241 8 65 0 161.04307556152 55 1 delete
09:29:45 60.370937 29.556303 16 69 0.30172652006149 147.95663452148 55 1 delete
09:29:40 60.370973 29.556268 6 72 0 192.4439239502 55 1 delete
09:29:30 60.370984 29.556300 12 78 0 192.4439239502 55 1 delete
09:29:28 60.370979 29.556326 6 86 0 192.4439239502 55 1 delete
09:29:15 60.370981 29.556405 12 76 0 192.4439239502 55 1 delete
09:29:02 60.370981 29.556405 16 64 0 192.4439239502 55 1 delete
09:28:49 60.370981 29.556405 8 76 0 192.4439239502 55 1 delete
09:28:37 60.370981 29.556405 8 69 0 192.4439239502 55 1 delete
09:28:30 60.370960 29.556390 6 67 0 0.12137526273727 55 1 delete
09:28:25 60.370940 29.556359 8 69 0 0.12137526273727 55 1 delete
09:28:14 60.370930 29.556316 6 80 0 0.12137526273727 55 1 delete
09:28:12 60.370938 29.556319 6 78 0 0.12137526273727 55 1 delete
09:28:00 60.370959 29.556309 6 73 0 20.187208175659 55 1 delete
09:27:56 60.370975 29.556310 8 66 0 20.187208175659 55 1 delete
09:27:47 60.370996 29.556344 8 68 0 20.187208175659 55 1 delete
09:27:35 60.371018 29.556385 6 71 0 20.187208175659 55 1 delete
09:27:28 60.371014 29.556378 6 84 0 20.187208175659 55 1 delete
09:27:23 60.370985 29.556306 6 71 0 20.187208175659 55 1 delete
09:27:13 60.370936 29.556289 6 83 0 20.187208175659 55 1 delete